Time;durP1;ratioP1;P1;durP2;ratioP2;P2;SDS_P1;SDS_P2;PMS_P1;PMS_P2;Temp;Humidity;BMP_temperature;BMP_pressure;BME280_temperature;BME280_humidity;BME280_pressure;Samples;Min_cycle;Max_cycle;Signal;HPM_P1;HPM_P2
2022/06/29 00:00:35;;;;;;;6.50;2.38;;;;;;;;;;7369868;19;20263;-75
2022/06/29 00:03:00;;;;;;;5.32;2.08;;;;;;;;;;7368720;19;20033;-75
2022/06/29 00:05:25;;;;;;;5.05;2.00;;;;;;;;;;7369560;19;20034;-76
2022/06/29 00:07:51;;;;;;;6.78;2.50;;;;;;;;;;7364242;19;20011;-75
2022/06/29 00:10:17;;;;;;;5.43;2.25;;;;;;;;;;7362222;19;20132;-75
2022/06/29 00:12:43;;;;;;;4.93;1.95;;;;;;;;;;7369038;19;20019;-75
2022/06/29 00:15:09;;;;;;;6.20;1.83;;;;;;;;;;7367643;19;20421;-75
2022/06/29 00:17:34;;;;;;;5.10;2.20;;;;;;;;;;7365973;19;20078;-75
2022/06/29 00:20:00;;;;;;;8.48;1.85;;;;;;;;;;7363523;19;20579;-73
2022/06/29 00:22:25;;;;;;;5.95;2.15;;;;;;;;;;7364319;19;20566;-73
2022/06/29 00:24:51;;;;;;;5.35;1.85;;;;;;;;;;7368819;19;20027;-75
2022/06/29 00:27:16;;;;;;;6.10;1.98;;;;;;;;;;7369805;19;20430;-75
2022/06/29 00:29:41;;;;;;;5.35;1.83;;;;;;;;;;7370338;19;19995;-75
2022/06/29 00:32:07;;;;;;;5.57;2.17;;;;;;;;;;7372759;19;19990;-75
2022/06/29 00:34:32;;;;;;;8.00;2.10;;;;;;;;;;7371458;19;20015;-77
2022/06/29 00:36:57;;;;;;;6.37;2.00;;;;;;;;;;7366928;19;20554;-74
2022/06/29 00:39:22;;;;;;;5.10;1.73;;;;;;;;;;7369206;19;20223;-73
2022/06/29 00:41:48;;;;;;;9.75;2.00;;;;;;;;;;7371518;19;20789;-74
2022/06/29 00:44:18;;;;;;;5.60;1.95;;;;;;;;;;7366598;19;20007;-75
2022/06/29 00:46:55;;;;;;;4.28;1.90;;;;;;;;;;7367784;19;20494;-78
2022/06/29 00:49:22;;;;;;;7.25;2.13;;;;;;;;;;7370221;19;20546;-76
2022/06/29 00:51:50;;;;;;;5.18;2.25;;;;;;;;;;7333080;19;20027;-76
2022/06/29 00:54:18;;;;;;;5.28;2.10;;;;;;;;;;7368551;19;19998;-74
2022/06/29 00:56:43;;;;;;;5.35;1.92;;;;;;;;;;7368954;19;20010;-73
2022/06/29 00:59:11;;;;;;;7.85;2.10;;;;;;;;;;7362741;19;20490;-75
2022/06/29 01:01:36;;;;;;;7.40;1.83;;;;;;;;;;7371681;19;20106;-75
2022/06/29 01:04:01;;;;;;;7.13;1.77;;;;;;;;;;7368914;19;20014;-75
2022/06/29 01:06:27;;;;;;;4.43;1.67;;;;;;;;;;7365264;19;20047;-75
2022/06/29 01:08:52;;;;;;;5.35;1.75;;;;;;;;;;7369698;19;20017;-75
2022/06/29 01:11:17;;;;;;;5.50;1.80;;;;;;;;;;7374200;19;20015;-75
2022/06/29 01:13:44;;;;;;;5.57;2.07;;;;;;;;;;7378106;19;20006;-75
2022/06/29 01:16:09;;;;;;;6.70;2.03;;;;;;;;;;7378411;19;20350;-76
2022/06/29 01:18:34;;;;;;;7.30;1.92;;;;;;;;;;7373530;19;20446;-75
2022/06/29 01:21:03;;;;;;;4.10;1.85;;;;;;;;;;7368028;19;20030;-75
2022/06/29 01:23:28;;;;;;;6.07;1.52;;;;;;;;;;7373686;19;20020;-76
2022/06/29 01:25:53;;;;;;;6.80;1.90;;;;;;;;;;7377125;19;20489;-76
2022/06/29 01:28:18;;;;;;;7.00;1.80;;;;;;;;;;7379172;19;20090;-75
2022/06/29 01:30:43;;;;;;;5.27;1.93;;;;;;;;;;7371755;19;20434;-77
2022/06/29 01:33:09;;;;;;;4.83;1.83;;;;;;;;;;7373023;19;20626;-76
2022/06/29 01:35:34;;;;;;;4.83;1.70;;;;;;;;;;7368457;19;20235;-75
2022/06/29 01:37:59;;;;;;;4.20;1.65;;;;;;;;;;7375782;19;20817;-77
2022/06/29 01:40:24;;;;;;;5.47;1.50;;;;;;;;;;7374845;19;20010;-75
2022/06/29 01:42:50;;;;;;;6.30;1.90;;;;;;;;;;7378485;19;20012;-76
2022/06/29 01:45:15;;;;;;;6.83;2.10;;;;;;;;;;7374542;19;20347;-75
2022/06/29 01:47:40;;;;;;;4.43;1.77;;;;;;;;;;7368143;19;20322;-75
2022/06/29 01:50:05;;;;;;;3.92;1.70;;;;;;;;;;7370734;19;20583;-74
2022/06/29 01:52:31;;;;;;;7.25;1.98;;;;;;;;;;7373503;19;19999;-76
2022/06/29 01:54:56;;;;;;;5.45;1.88;;;;;;;;;;7375151;19;20035;-75
2022/06/29 01:57:21;;;;;;;6.47;2.20;;;;;;;;;;7372794;19;20034;-75
2022/06/29 01:59:46;;;;;;;5.03;1.73;;;;;;;;;;7376129;19;20586;-75
2022/06/29 02:02:11;;;;;;;7.50;1.93;;;;;;;;;;7369803;19;20051;-74
2022/06/29 02:04:37;;;;;;;6.13;1.87;;;;;;;;;;7373915;19;20234;-74
2022/06/29 02:07:02;;;;;;;6.00;2.05;;;;;;;;;;7367431;19;20776;-75
2022/06/29 02:09:27;;;;;;;9.00;1.73;;;;;;;;;;7366339;19;20010;-74
2022/06/29 02:11:52;;;;;;;6.43;1.80;;;;;;;;;;7368528;19;20509;-74
2022/06/29 02:14:18;;;;;;;6.75;2.03;;;;;;;;;;7370418;19;20243;-74
2022/06/29 02:16:43;;;;;;;7.93;1.80;;;;;;;;;;7369409;19;20010;-75
2022/06/29 02:19:08;;;;;;;6.50;1.92;;;;;;;;;;7375046;19;20247;-75
2022/06/29 02:21:33;;;;;;;4.07;1.80;;;;;;;;;;7379239;19;20007;-76
2022/06/29 02:23:59;;;;;;;4.65;1.85;;;;;;;;;;7378873;19;20001;-74
2022/06/29 02:26:24;;;;;;;5.97;1.83;;;;;;;;;;7381885;19;20014;-75
2022/06/29 02:28:49;;;;;;;5.63;1.80;;;;;;;;;;7374495;19;20790;-75
2022/06/29 02:36:42;;;;;;;6.75;1.70;;;;;;;;;;7375119;19;20010;-73
2022/06/29 02:39:07;;;;;;;4.17;1.67;;;;;;;;;;7376014;19;20011;-75
2022/06/29 02:41:32;;;;;;;5.13;1.90;;;;;;;;;;7378517;19;20746;-74
2022/06/29 02:43:58;;;;;;;4.18;1.65;;;;;;;;;;7376732;19;20257;-73
2022/06/29 02:46:23;;;;;;;4.70;2.03;;;;;;;;;;7372213;19;20347;-75
2022/06/29 02:48:48;;;;;;;4.22;2.00;;;;;;;;;;7381206;19;20023;-74
2022/06/29 02:51:14;;;;;;;5.03;2.03;;;;;;;;;;7376994;19;20043;-76
2022/06/29 02:53:39;;;;;;;5.70;2.05;;;;;;;;;;7379214;19;20010;-75
2022/06/29 02:56:04;;;;;;;4.50;1.83;;;;;;;;;;7377631;19;20086;-74
2022/06/29 02:58:29;;;;;;;4.35;1.90;;;;;;;;;;7374180;19;20102;-77
2022/06/29 03:00:54;;;;;;;5.15;2.05;;;;;;;;;;7368346;19;20010;-77
2022/06/29 03:03:20;;;;;;;5.17;1.80;;;;;;;;;;7370891;19;20002;-76
2022/06/29 03:05:45;;;;;;;4.72;1.95;;;;;;;;;;7375748;19;20242;-76
2022/06/29 03:08:10;;;;;;;5.55;1.83;;;;;;;;;;7377217;19;20015;-76
2022/06/29 03:10:36;;;;;;;5.55;2.17;;;;;;;;;;7371978;19;20027;-77
2022/06/29 03:13:01;;;;;;;4.13;1.75;;;;;;;;;;7377080;19;20406;-77
2022/06/29 03:15:26;;;;;;;5.80;1.70;;;;;;;;;;7376464;19;20006;-75
2022/06/29 03:17:52;;;;;;;6.10;1.95;;;;;;;;;;7377740;19;20256;-73
2022/06/29 03:20:17;;;;;;;5.47;1.90;;;;;;;;;;7372211;19;20006;-77
2022/06/29 03:22:46;;;;;;;4.43;1.90;;;;;;;;;;7379186;19;20017;-78
2022/06/29 03:25:11;;;;;;;5.82;1.75;;;;;;;;;;7374359;19;20257;-75
2022/06/29 03:27:36;;;;;;;4.15;1.67;;;;;;;;;;7381162;19;20021;-77
2022/06/29 03:30:02;;;;;;;7.65;1.90;;;;;;;;;;7374598;19;20010;-76
2022/06/29 03:32:27;;;;;;;4.57;1.85;;;;;;;;;;7383635;19;20021;-77
2022/06/29 03:34:52;;;;;;;4.53;2.03;;;;;;;;;;7372064;19;20014;-76
2022/06/29 03:37:17;;;;;;;4.50;1.57;;;;;;;;;;7374080;19;20639;-76
2022/06/29 03:39:44;;;;;;;4.27;1.70;;;;;;;;;;7378443;19;20834;-77
2022/06/29 03:42:09;;;;;;;5.15;1.90;;;;;;;;;;7376854;19;20123;-75
2022/06/29 03:44:34;;;;;;;4.68;1.90;;;;;;;;;;7375822;19;20418;-77
2022/06/29 03:46:59;;;;;;;6.77;2.00;;;;;;;;;;7378804;19;20580;-77
2022/06/29 03:49:26;;;;;;;4.40;1.73;;;;;;;;;;7365035;19;20246;-76
2022/06/29 03:51:51;;;;;;;6.63;2.00;;;;;;;;;;7375800;19;20283;-77
2022/06/29 03:54:16;;;;;;;10.47;2.73;;;;;;;;;;7381074;19;20038;-77
2022/06/29 03:56:41;;;;;;;4.87;2.00;;;;;;;;;;7374513;19;20869;-77
2022/06/29 03:59:07;;;;;;;3.70;1.60;;;;;;;;;;7371998;19;20637;-76
2022/06/29 04:01:32;;;;;;;4.55;1.67;;;;;;;;;;7372402;19;20247;-77
2022/06/29 04:03:57;;;;;;;6.27;1.40;;;;;;;;;;7370853;19;20005;-75
2022/06/29 04:06:22;;;;;;;6.80;1.90;;;;;;;;;;7368332;19;20078;-75
2022/06/29 04:08:47;;;;;;;5.40;2.10;;;;;;;;;;7374213;19;20251;-76
2022/06/29 04:13:56;;;;;;;8.63;2.15;;;;;;;;;;7380342;19;20491;-78
2022/06/29 04:16:22;;;;;;;4.97;1.63;;;;;;;;;;7376307;19;20006;-75
2022/06/29 04:18:47;;;;;;;3.97;1.60;;;;;;;;;;7370454;19;20261;-74
2022/06/29 04:21:12;;;;;;;6.10;2.08;;;;;;;;;;7373747;19;20482;-77
2022/06/29 04:23:37;;;;;;;4.18;2.17;;;;;;;;;;7378139;19;20022;-77
2022/06/29 04:26:02;;;;;;;5.25;2.03;;;;;;;;;;7375790;19;20003;-76
2022/06/29 04:28:28;;;;;;;6.50;1.90;;;;;;;;;;7375370;19;20013;-76
2022/06/29 04:30:53;;;;;;;4.88;2.00;;;;;;;;;;7365960;19;20470;-77
2022/06/29 04:33:18;;;;;;;4.67;2.17;;;;;;;;;;7369492;19;20019;-78
2022/06/29 04:35:43;;;;;;;7.32;1.90;;;;;;;;;;7367966;19;20278;-78
2022/06/29 04:38:08;;;;;;;5.95;2.10;;;;;;;;;;7374664;19;20006;-77
2022/06/29 04:40:34;;;;;;;4.23;1.87;;;;;;;;;;7374247;19;20014;-78
2022/06/29 04:42:59;;;;;;;7.87;1.93;;;;;;;;;;7379896;19;20539;-76
2022/06/29 04:48:08;;;;;;;4.53;1.98;;;;;;;;;;7369660;19;20219;-77
2022/06/29 04:50:33;;;;;;;9.13;1.73;;;;;;;;;;7371571;19;20359;-78
2022/06/29 04:52:58;;;;;;;5.93;1.80;;;;;;;;;;7374809;19;20414;-78
2022/06/29 04:55:25;;;;;;;7.40;2.10;;;;;;;;;;7374276;19;20797;-78
2022/06/29 04:57:51;;;;;;;7.80;1.88;;;;;;;;;;7368805;19;20006;-77
2022/06/29 05:00:16;;;;;;;6.05;2.13;;;;;;;;;;7370029;19;20381;-77
2022/06/29 05:02:42;;;;;;;6.38;2.20;;;;;;;;;;7373990;19;20010;-77
2022/06/29 05:05:07;;;;;;;7.15;2.38;;;;;;;;;;7372472;19;20098;-75
2022/06/29 05:07:32;;;;;;;11.02;2.50;;;;;;;;;;7374965;19;20001;-76
2022/06/29 05:09:57;;;;;;;7.27;2.57;;;;;;;;;;7372414;19;20015;-75
2022/06/29 05:12:22;;;;;;;7.73;2.57;;;;;;;;;;7373881;19;20031;-75
2022/06/29 05:14:48;;;;;;;6.30;2.20;;;;;;;;;;7376426;19;20010;-74
2022/06/29 05:17:13;;;;;;;4.57;2.17;;;;;;;;;;7375078;19;20102;-76
2022/06/29 05:19:38;;;;;;;5.70;1.90;;;;;;;;;;7365937;19;20010;-75
2022/06/29 05:22:03;;;;;;;5.50;1.80;;;;;;;;;;7377756;19;20005;-75
2022/06/29 05:24:28;;;;;;;4.95;2.38;;;;;;;;;;7378552;19;20393;-73
2022/06/29 05:26:54;;;;;;;4.45;1.80;;;;;;;;;;7376771;19;20002;-75
2022/06/29 05:29:19;;;;;;;5.10;1.67;;;;;;;;;;7372933;19;20017;-76
2022/06/29 05:31:44;;;;;;;5.43;2.25;;;;;;;;;;7375349;19;20781;-75
2022/06/29 05:34:10;;;;;;;4.32;1.88;;;;;;;;;;7378999;19;20006;-74
2022/06/29 05:36:35;;;;;;;4.45;2.47;;;;;;;;;;7370420;19;20010;-74
2022/06/29 05:39:00;;;;;;;4.37;2.17;;;;;;;;;;7369757;19;20038;-75
2022/06/29 05:41:26;;;;;;;6.03;1.90;;;;;;;;;;7376756;19;20263;-74
2022/06/29 05:43:51;;;;;;;5.55;1.75;;;;;;;;;;7371770;19;20843;-74
2022/06/29 05:46:18;;;;;;;6.47;2.53;;;;;;;;;;7366128;19;20010;-75
2022/06/29 05:48:43;;;;;;;7.10;2.35;;;;;;;;;;7355055;19;20018;-75
2022/06/29 05:51:08;;;;;;;7.85;2.10;;;;;;;;;;7358017;19;20450;-75
2022/06/29 05:53:33;;;;;;;5.53;1.80;;;;;;;;;;7371162;19;20146;-73
2022/06/29 05:55:59;;;;;;;4.93;1.80;;;;;;;;;;7365425;19;20595;-75
2022/06/29 05:58:24;;;;;;;4.70;2.13;;;;;;;;;;7367571;19;20251;-71
2022/06/29 06:00:49;;;;;;;5.18;2.47;;;;;;;;;;7376926;19;20019;-72
2022/06/29 06:03:15;;;;;;;6.32;2.38;;;;;;;;;;7379716;19;20020;-71
2022/06/29 06:05:40;;;;;;;6.82;1.90;;;;;;;;;;7378444;19;20421;-71
2022/06/29 06:08:05;;;;;;;5.35;2.22;;;;;;;;;;7377610;19;20250;-71
2022/06/29 06:10:31;;;;;;;6.47;2.40;;;;;;;;;;7379305;19;20010;-71
2022/06/29 06:12:56;;;;;;;6.17;2.00;;;;;;;;;;7378263;19;20875;-71
2022/06/29 06:15:21;;;;;;;10.63;2.70;;;;;;;;;;7376657;19;20240;-71
2022/06/29 06:17:46;;;;;;;7.43;2.40;;;;;;;;;;7379704;19;20007;-71
2022/06/29 06:20:11;;;;;;;5.73;2.00;;;;;;;;;;7379725;19;20248;-71
2022/06/29 06:22:37;;;;;;;5.40;2.20;;;;;;;;;;7378833;19;20542;-71
2022/06/29 06:25:02;;;;;;;5.10;2.47;;;;;;;;;;7382281;19;20256;-72
2022/06/29 06:27:27;;;;;;;6.10;2.30;;;;;;;;;;7379935;19;20821;-71
2022/06/29 06:29:52;;;;;;;7.07;2.67;;;;;;;;;;7378599;19;19998;-71
2022/06/29 06:32:18;;;;;;;7.05;2.40;;;;;;;;;;7381685;19;20006;-71
2022/06/29 06:34:43;;;;;;;3.97;1.90;;;;;;;;;;7378965;19;20549;-71
2022/06/29 06:37:08;;;;;;;8.27;2.20;;;;;;;;;;7380547;19;20738;-71
2022/06/29 06:39:33;;;;;;;5.85;2.28;;;;;;;;;;7380428;19;19994;-72
2022/06/29 06:41:59;;;;;;;6.38;2.35;;;;;;;;;;7381069;19;20324;-71
2022/06/29 06:44:24;;;;;;;5.18;2.33;;;;;;;;;;7376625;19;20002;-72
2022/06/29 06:46:49;;;;;;;5.13;2.40;;;;;;;;;;7379837;19;20642;-71
2022/06/29 06:49:15;;;;;;;6.20;2.13;;;;;;;;;;7379330;19;20006;-72
2022/06/29 06:51:40;;;;;;;9.38;2.15;;;;;;;;;;7377728;19;20346;-71
2022/06/29 06:54:05;;;;;;;5.73;2.07;;;;;;;;;;7378093;19;20470;-71
2022/06/29 06:56:31;;;;;;;8.30;2.30;;;;;;;;;;7378425;19;20014;-71
2022/06/29 06:58:56;;;;;;;5.10;2.08;;;;;;;;;;7378529;19;20462;-72
2022/06/29 07:01:21;;;;;;;6.65;2.30;;;;;;;;;;7373172;19;20444;-71
2022/06/29 07:03:46;;;;;;;5.20;2.30;;;;;;;;;;7375634;19;20014;-72
2022/06/29 07:06:12;;;;;;;7.97;2.70;;;;;;;;;;7376617;19;20530;-71
2022/06/29 07:08:38;;;;;;;6.97;2.28;;;;;;;;;;7379796;19;20026;-71
2022/06/29 07:11:05;;;;;;;6.97;2.58;;;;;;;;;;7379184;19;20595;-71
2022/06/29 07:13:33;;;;;;;6.40;2.33;;;;;;;;;;7375799;19;20013;-72
2022/06/29 07:15:58;;;;;;;6.40;2.45;;;;;;;;;;7377118;19;20320;-71
2022/06/29 07:18:23;;;;;;;5.72;2.25;;;;;;;;;;7378668;19;20002;-74
2022/06/29 07:20:49;;;;;;;5.72;2.30;;;;;;;;;;7374612;19;20003;-71
2022/06/29 07:23:14;;;;;;;6.03;2.63;;;;;;;;;;7375584;19;20604;-72
2022/06/29 07:25:40;;;;;;;6.97;2.90;;;;;;;;;;7378764;19;20014;-71
2022/06/29 07:28:05;;;;;;;5.82;2.65;;;;;;;;;;7367877;19;20378;-73
2022/06/29 07:30:31;;;;;;;5.05;2.47;;;;;;;;;;7378023;19;20447;-71
2022/06/29 07:32:56;;;;;;;5.10;2.63;;;;;;;;;;7373838;19;20058;-72
2022/06/29 07:35:21;;;;;;;5.30;2.47;;;;;;;;;;7372438;19;20007;-71
2022/06/29 07:37:46;;;;;;;5.03;2.03;;;;;;;;;;7375648;19;20242;-71
2022/06/29 07:40:12;;;;;;;5.72;2.20;;;;;;;;;;7379300;19;19999;-72
2022/06/29 07:42:38;;;;;;;7.13;2.10;;;;;;;;;;7377482;19;20010;-73
2022/06/29 07:45:04;;;;;;;4.13;2.08;;;;;;;;;;7374604;19;20010;-72
2022/06/29 07:47:30;;;;;;;5.72;2.00;;;;;;;;;;7377270;19;20025;-73
2022/06/29 07:49:55;;;;;;;4.70;1.97;;;;;;;;;;7375494;19;20861;-72
2022/06/29 07:52:20;;;;;;;5.80;2.30;;;;;;;;;;7374482;19;20011;-72
2022/06/29 07:54:45;;;;;;;6.15;2.10;;;;;;;;;;7376150;19;19999;-73
2022/06/29 07:57:10;;;;;;;8.37;2.07;;;;;;;;;;7376347;19;20042;-73
2022/06/29 07:59:36;;;;;;;6.60;2.20;;;;;;;;;;7374289;19;20628;-72
2022/06/29 08:02:01;;;;;;;5.07;2.17;;;;;;;;;;7364736;19;20479;-72
2022/06/29 08:04:26;;;;;;;5.63;2.03;;;;;;;;;;7372999;19;20002;-73
2022/06/29 08:06:51;;;;;;;5.47;2.10;;;;;;;;;;7365950;19;20011;-73
2022/06/29 08:09:16;;;;;;;7.20;2.00;;;;;;;;;;7372196;19;20235;-72
2022/06/29 08:11:42;;;;;;;6.80;2.10;;;;;;;;;;7373612;19;20010;-72
2022/06/29 08:14:07;;;;;;;7.67;2.13;;;;;;;;;;7369669;19;20014;-72
2022/06/29 08:16:32;;;;;;;5.93;2.27;;;;;;;;;;7373755;19;20267;-73
2022/06/29 08:18:57;;;;;;;4.77;1.70;;;;;;;;;;7371462;19;20510;-73
2022/06/29 08:21:22;;;;;;;6.53;2.50;;;;;;;;;;7370452;19;20015;-73
2022/06/29 08:23:48;;;;;;;9.37;2.07;;;;;;;;;;7374998;19;20509;-74
2022/06/29 08:26:13;;;;;;;6.72;2.03;;;;;;;;;;7375091;19;20746;-72
2022/06/29 08:28:38;;;;;;;14.77;1.88;;;;;;;;;;7372182;19;20484;-73
2022/06/29 08:31:03;;;;;;;4.50;1.70;;;;;;;;;;7373820;19;20419;-72
2022/06/29 08:33:29;;;;;;;6.27;2.10;;;;;;;;;;7376810;19;20613;-73
2022/06/29 08:35:54;;;;;;;6.30;1.33;;;;;;;;;;7370774;19;20015;-72
2022/06/29 08:38:19;;;;;;;5.43;1.60;;;;;;;;;;7374761;19;20280;-74
2022/06/29 08:40:46;;;;;;;4.75;1.70;;;;;;;;;;7376335;19;20078;-72
2022/06/29 08:43:12;;;;;;;6.13;1.58;;;;;;;;;;7377358;19;20444;-74
2022/06/29 08:45:47;;;;;;;5.90;1.48;;;;;;;;;;7375013;19;20923;-74
2022/06/29 08:48:13;;;;;;;3.58;1.40;;;;;;;;;;7371445;19;20060;-72
2022/06/29 08:50:39;;;;;;;4.32;1.65;;;;;;;;;;7365372;19;20011;-73
2022/06/29 08:53:05;;;;;;;5.38;1.50;;;;;;;;;;7361662;19;19995;-74
2022/06/29 08:55:32;;;;;;;4.25;1.77;;;;;;;;;;7365156;19;19998;-73
2022/06/29 08:57:57;;;;;;;4.82;1.67;;;;;;;;;;7360432;19;20459;-74
2022/06/29 09:00:24;;;;;;;3.65;1.50;;;;;;;;;;7360919;19;20456;-75
2022/06/29 09:02:49;;;;;;;3.70;1.33;;;;;;;;;;7372997;19;20029;-72
2022/06/29 09:05:15;;;;;;;5.80;1.50;;;;;;;;;;7366857;19;20478;-72
2022/06/29 09:07:40;;;;;;;4.40;1.40;;;;;;;;;;7362256;19;20017;-75
2022/06/29 09:10:11;;;;;;;6.20;1.50;;;;;;;;;;7363960;19;20816;-73
2022/06/29 09:12:37;;;;;;;6.88;1.42;;;;;;;;;;7367904;19;20459;-73
2022/06/29 09:15:03;;;;;;;4.78;1.63;;;;;;;;;;7366181;19;20010;-73
2022/06/29 09:17:32;;;;;;;4.97;1.40;;;;;;;;;;7361156;19;20010;-73
2022/06/29 09:19:57;;;;;;;5.60;1.38;;;;;;;;;;7365503;19;20548;-73
2022/06/29 09:22:23;;;;;;;5.07;1.45;;;;;;;;;;7368603;19;20412;-75
2022/06/29 09:24:49;;;;;;;4.40;1.30;;;;;;;;;;7367842;19;20015;-75
2022/06/29 09:27:14;;;;;;;4.03;1.13;;;;;;;;;;7365313;19;20247;-75
2022/06/29 09:29:41;;;;;;;6.57;1.40;;;;;;;;;;7368006;19;20320;-75
2022/06/29 09:32:10;;;;;;;4.03;1.35;;;;;;;;;;7363761;19;20036;-72
2022/06/29 09:34:40;;;;;;;6.72;1.50;;;;;;;;;;7364153;19;20919;-75
2022/06/29 09:37:07;;;;;;;3.45;1.20;;;;;;;;;;7353120;19;20258;-76
2022/06/29 09:39:39;;;;;;;3.47;1.10;;;;;;;;;;7352785;19;20010;-75
2022/06/29 09:42:05;;;;;;;3.50;1.20;;;;;;;;;;7359535;19;20026;-74
2022/06/29 09:44:31;;;;;;;4.80;1.38;;;;;;;;;;7353266;19;20006;-75
2022/06/29 09:46:57;;;;;;;4.53;1.33;;;;;;;;;;7361557;19;20098;-73
2022/06/29 09:49:25;;;;;;;5.28;1.20;;;;;;;;;;7365928;19;20489;-74
2022/06/29 09:51:51;;;;;;;5.00;1.30;;;;;;;;;;7359567;19;20014;-75
2022/06/29 09:54:18;;;;;;;3.22;1.23;;;;;;;;;;7363110;19;20018;-72
2022/06/29 09:56:49;;;;;;;6.20;1.40;;;;;;;;;;7363511;19;20454;-72
2022/06/29 10:02:34;;;;;;;4.75;1.40;;;;;;;;;;7362126;19;20078;-74
2022/06/29 10:05:01;;;;;;;3.75;1.50;;;;;;;;;;7356243;19;20017;-73
2022/06/29 10:07:28;;;;;;;4.65;1.08;;;;;;;;;;7362665;19;20038;-75
2022/06/29 10:09:54;;;;;;;3.22;1.00;;;;;;;;;;7361074;19;19999;-73
2022/06/29 10:15:09;;;;;;;3.03;1.10;;;;;;;;;;7366954;19;20256;-72
2022/06/29 10:17:34;;;;;;;3.83;1.30;;;;;;;;;;7372677;19;20010;-73
2022/06/29 10:20:18;;;;;;;3.60;1.53;;;;;;;;;;7369597;19;20022;-73
2022/06/29 10:22:43;;;;;;;9.30;1.65;;;;;;;;;;7366119;19;20284;-71
2022/06/29 10:25:10;;;;;;;4.93;1.25;;;;;;;;;;7366966;19;20015;-72
2022/06/29 10:27:35;;;;;;;4.10;1.30;;;;;;;;;;7368261;19;20505;-75
2022/06/29 10:30:19;;;;;;;5.80;1.00;;;;;;;;;;7362806;19;20245;-74
2022/06/29 10:32:45;;;;;;;3.60;1.10;;;;;;;;;;7367612;19;20011;-74
2022/06/29 10:35:10;;;;;;;3.35;1.20;;;;;;;;;;7362921;19;20435;-74
2022/06/29 10:37:49;;;;;;;4.55;1.45;;;;;;;;;;7371193;19;20027;-76
2022/06/29 10:40:16;;;;;;;6.55;1.38;;;;;;;;;;7374480;19;20002;-75
2022/06/29 10:45:26;;;;;;;2.90;1.00;;;;;;;;;;7375651;19;20084;-72
2022/06/29 10:47:54;;;;;;;4.50;1.30;;;;;;;;;;7371058;19;20023;-74
2022/06/29 10:52:44;;;;;;;4.25;1.27;;;;;;;;;;7372871;19;19995;-73
2022/06/29 10:55:11;;;;;;;4.65;1.40;;;;;;;;;;7367043;19;20014;-73
2022/06/29 10:57:37;;;;;;;7.80;1.40;;;;;;;;;;7361820;19;20010;-73
2022/06/29 11:00:10;;;;;;;4.78;1.30;;;;;;;;;;7370908;19;20013;-74
2022/06/29 11:02:36;;;;;;;4.65;1.10;;;;;;;;;;7365537;19;20006;-75
2022/06/29 11:05:02;;;;;;;5.28;1.33;;;;;;;;;;7367362;19;20525;-73
2022/06/29 11:12:56;;;;;;;4.88;1.48;;;;;;;;;;7368078;19;20717;-74
2022/06/29 11:15:40;;;;;;;6.05;1.33;;;;;;;;;;7371875;19;20018;-72
2022/06/29 11:18:10;;;;;;;3.70;1.30;;;;;;;;;;7377231;19;20018;-75
2022/06/29 11:20:36;;;;;;;4.07;1.52;;;;;;;;;;7370911;19;20433;-73
2022/06/29 11:23:01;;;;;;;4.13;1.30;;;;;;;;;;7376684;19;20466;-74
2022/06/29 11:25:34;;;;;;;4.53;1.30;;;;;;;;;;7372128;19;20014;-75
2022/06/29 11:27:59;;;;;;;7.57;1.40;;;;;;;;;;7374786;19;20026;-72
2022/06/29 11:30:24;;;;;;;6.13;1.40;;;;;;;;;;7374744;19;20014;-72
2022/06/29 11:32:49;;;;;;;3.67;1.37;;;;;;;;;;7362288;19;20513;-76
2022/06/29 11:35:16;;;;;;;4.67;1.20;;;;;;;;;;7367601;19;20014;-75
2022/06/29 11:37:48;;;;;;;4.65;1.40;;;;;;;;;;7373602;19;20014;-74
2022/06/29 11:40:13;;;;;;;6.85;1.58;;;;;;;;;;7366534;19;19998;-75
2022/06/29 11:45:22;;;;;;;4.70;1.23;;;;;;;;;;7369194;19;20005;-73
2022/06/29 11:47:53;;;;;;;5.17;1.40;;;;;;;;;;7374379;19;20144;-74
2022/06/29 11:50:19;;;;;;;3.40;1.38;;;;;;;;;;7366346;19;19999;-71
2022/06/29 11:52:45;;;;;;;7.25;1.58;;;;;;;;;;7370777;19;20503;-73
2022/06/29 11:55:10;;;;;;;6.57;1.60;;;;;;;;;;7372417;19;20415;-72
2022/06/29 11:57:35;;;;;;;3.27;1.40;;;;;;;;;;7373263;19;20030;-73
2022/06/29 12:00:08;;;;;;;5.10;1.30;;;;;;;;;;7369744;19;20002;-73
2022/06/29 12:02:34;;;;;;;4.47;1.30;;;;;;;;;;7369704;19;20099;-75
2022/06/29 12:05:00;;;;;;;6.32;1.60;;;;;;;;;;7364657;19;19994;-75
2022/06/29 12:07:27;;;;;;;4.88;1.75;;;;;;;;;;7371104;19;20881;-74
2022/06/29 12:09:52;;;;;;;4.88;1.25;;;;;;;;;;7364706;19;20007;-75
2022/06/29 12:12:18;;;;;;;3.73;1.20;;;;;;;;;;7367349;19;20485;-72
2022/06/29 12:14:43;;;;;;;4.50;1.30;;;;;;;;;;7371887;19;20042;-73
2022/06/29 12:17:09;;;;;;;4.60;1.50;;;;;;;;;;7371449;19;20303;-75
2022/06/29 12:19:35;;;;;;;4.18;1.40;;;;;;;;;;7362745;19;20259;-75
2022/06/29 12:22:00;;;;;;;7.90;1.48;;;;;;;;;;7356994;19;20466;-74
2022/06/29 12:24:26;;;;;;;6.90;1.60;;;;;;;;;;7369743;19;20026;-72
2022/06/29 12:26:52;;;;;;;6.05;1.48;;;;;;;;;;7361981;19;20011;-75
2022/06/29 12:29:17;;;;;;;5.05;1.40;;;;;;;;;;7355395;19;20037;-72
2022/06/29 12:31:43;;;;;;;5.78;1.55;;;;;;;;;;7366525;19;20517;-74
2022/06/29 12:34:09;;;;;;;4.75;1.25;;;;;;;;;;7369931;19;20018;-72
2022/06/29 12:36:34;;;;;;;9.48;1.63;;;;;;;;;;7368070;19;20390;-73
2022/06/29 12:38:59;;;;;;;5.97;1.30;;;;;;;;;;7370228;19;20023;-72
2022/06/29 12:41:24;;;;;;;5.38;1.70;;;;;;;;;;7363720;19;20031;-72
2022/06/29 12:43:50;;;;;;;7.20;1.77;;;;;;;;;;7367133;19;20006;-73
2022/06/29 12:46:15;;;;;;;6.23;1.50;;;;;;;;;;7374460;19;20671;-72
2022/06/29 12:48:40;;;;;;;5.27;1.30;;;;;;;;;;7373975;19;20061;-72
2022/06/29 12:51:06;;;;;;;7.57;1.60;;;;;;;;;;7361749;19;20548;-72
2022/06/29 12:53:31;;;;;;;4.90;1.63;;;;;;;;;;7368382;19;20244;-71
2022/06/29 12:55:57;;;;;;;4.50;1.15;;;;;;;;;;7370610;19;20449;-74
2022/06/29 12:58:22;;;;;;;8.40;1.77;;;;;;;;;;7359654;19;20366;-73
2022/06/29 13:00:48;;;;;;;6.93;1.70;;;;;;;;;;7364514;19;20046;-75
2022/06/29 13:03:14;;;;;;;6.22;1.92;;;;;;;;;;7358553;19;20009;-72
2022/06/29 13:05:39;;;;;;;4.32;1.83;;;;;;;;;;7352313;19;20383;-72
2022/06/29 13:08:04;;;;;;;4.30;1.50;;;;;;;;;;7360767;19;20345;-72
2022/06/29 13:10:31;;;;;;;4.60;1.57;;;;;;;;;;7360336;19;20015;-73
2022/06/29 13:12:56;;;;;;;6.88;1.63;;;;;;;;;;7361604;19;20600;-71
2022/06/29 13:15:21;;;;;;;5.15;1.35;;;;;;;;;;7358791;19;20014;-73
2022/06/29 13:17:46;;;;;;;6.17;1.57;;;;;;;;;;7356339;19;20317;-74
2022/06/29 13:20:12;;;;;;;5.33;1.53;;;;;;;;;;7356501;19;19995;-74
2022/06/29 13:22:37;;;;;;;5.97;1.40;;;;;;;;;;7361786;19;20042;-72
2022/06/29 13:25:03;;;;;;;7.93;1.67;;;;;;;;;;7360885;19;20047;-74
2022/06/29 13:27:28;;;;;;;6.60;1.50;;;;;;;;;;7363339;19;20011;-72
2022/06/29 13:29:53;;;;;;;4.50;1.60;;;;;;;;;;7357460;19;20427;-71
2022/06/29 13:32:18;;;;;;;4.65;1.75;;;;;;;;;;7358816;19;20434;-75
2022/06/29 13:34:44;;;;;;;5.90;1.50;;;;;;;;;;7357610;19;20006;-74
2022/06/29 13:37:09;;;;;;;3.00;1.20;;;;;;;;;;7362294;19;19995;-72
2022/06/29 13:39:34;;;;;;;4.50;1.50;;;;;;;;;;7358892;19;20056;-72
2022/06/29 13:42:00;;;;;;;6.90;1.77;;;;;;;;;;7359087;19;20347;-72
2022/06/29 13:44:25;;;;;;;10.52;1.60;;;;;;;;;;7360409;19;20003;-73
2022/06/29 13:46:51;;;;;;;9.52;1.60;;;;;;;;;;7362589;19;20046;-72
2022/06/29 13:49:16;;;;;;;8.60;1.50;;;;;;;;;;7367404;19;20534;-72
2022/06/29 13:51:41;;;;;;;4.30;1.53;;;;;;;;;;7353103;19;20454;-75
2022/06/29 13:54:06;;;;;;;7.10;1.60;;;;;;;;;;7361104;19;20010;-75
2022/06/29 13:56:32;;;;;;;4.40;1.50;;;;;;;;;;7356795;19;20054;-72
2022/06/29 13:58:57;;;;;;;5.97;1.73;;;;;;;;;;7354563;19;20629;-72
2022/06/29 14:01:22;;;;;;;6.37;1.67;;;;;;;;;;7362220;19;20449;-72
2022/06/29 14:03:48;;;;;;;8.13;1.70;;;;;;;;;;7360943;19;20003;-73
2022/06/29 14:06:13;;;;;;;11.05;1.98;;;;;;;;;;7359438;19;20288;-72
2022/06/29 14:08:38;;;;;;;5.40;1.50;;;;;;;;;;7360275;19;19995;-74
2022/06/29 14:11:04;;;;;;;8.73;1.50;;;;;;;;;;7355674;19;20018;-74
2022/06/29 14:13:29;;;;;;;5.47;1.60;;;;;;;;;;7365406;19;20264;-72
2022/06/29 14:15:54;;;;;;;4.45;1.58;;;;;;;;;;7370432;19;20457;-72
2022/06/29 14:18:20;;;;;;;3.40;1.52;;;;;;;;;;7369462;19;20350;-72
2022/06/29 14:20:45;;;;;;;4.53;1.55;;;;;;;;;;7366062;19;20316;-74
2022/06/29 14:23:11;;;;;;;3.90;1.48;;;;;;;;;;7363645;19;20599;-74
2022/06/29 14:25:36;;;;;;;7.05;1.77;;;;;;;;;;7371855;19;20018;-73
2022/06/29 14:28:01;;;;;;;5.17;1.87;;;;;;;;;;7365566;19;20013;-75
2022/06/29 14:30:27;;;;;;;6.18;1.67;;;;;;;;;;7366341;19;20025;-73
2022/06/29 14:32:53;;;;;;;6.55;1.60;;;;;;;;;;7370186;19;20099;-72
2022/06/29 14:35:18;;;;;;;5.68;1.50;;;;;;;;;;7365970;19;20095;-73
2022/06/29 14:37:44;;;;;;;5.13;1.40;;;;;;;;;;7365831;19;20006;-73
2022/06/29 14:40:09;;;;;;;6.43;1.50;;;;;;;;;;7369500;19;20013;-73
2022/06/29 14:42:35;;;;;;;6.18;1.85;;;;;;;;;;7369034;19;20424;-72
2022/06/29 14:45:01;;;;;;;6.25;1.50;;;;;;;;;;7361359;19;20013;-72
2022/06/29 14:47:26;;;;;;;7.55;1.60;;;;;;;;;;7371619;19;20011;-72
2022/06/29 14:49:52;;;;;;;5.00;1.73;;;;;;;;;;7364471;19;20366;-72
2022/06/29 14:52:17;;;;;;;7.13;1.77;;;;;;;;;;7369416;19;20414;-72
2022/06/29 14:54:42;;;;;;;6.10;1.70;;;;;;;;;;7370813;19;20014;-73
2022/06/29 14:57:07;;;;;;;5.30;1.90;;;;;;;;;;7369384;19;20754;-74
2022/06/29 14:59:33;;;;;;;3.83;1.30;;;;;;;;;;7368342;19;20010;-73
2022/06/29 15:01:59;;;;;;;9.60;1.80;;;;;;;;;;7361011;19;20964;-73
2022/06/29 15:04:25;;;;;;;10.27;2.20;;;;;;;;;;7363511;19;20003;-73